Flight Track Log - Related Links

Times and Time Zones

All times are in EDT time to prevent confusion due to time zone crossing. See the N777NC flight status page for this flight to view local times or setup timezone preferences in your user account.

Time Position Orientation Groundspeed Altitude Reporting Facility
EDT Latitude Longitude Course Direction KTS MPH feet Rate Location/Type
Wed 01:17:38 PM 33.6500 -84.3833 348° North 183 211 2,200  Level Atlanta TRACON
Wed 01:18:32 PM 33.6667 -84.3167 73° East 255 293 3,700 1,842 Climbing Atlanta TRACON
Wed 01:19:32 PM 33.7333 -84.2833 23° Northeast 276 318 5,700 1,867 Climbing Atlanta TRACON
Wed 01:21:48 PM 33.9067 -84.2917 358° North 295 339 9,800 1,433 Climbing Atlanta Center
Wed 01:22:32 PM 33.9833 -84.3000 355° North 307 353 10,000 1,167 Climbing Atlanta TRACON
Wed 01:23:00 PM 34.2078 -84.5687 348° North  Level FlightAware Approximate
Wed 01:24:48 PM 34.1294 -84.4553 319° Northwest 337 388 13,300  Level Atlanta Center
Wed 01:25:48 PM 34.2067 -84.5211 325° Northwest 344 396 15,200 1,950 Climbing Atlanta Center
Wed 01:26:48 PM 34.2981 -84.5794 332° Northwest 360 414 17,200 1,850 Climbing Atlanta Center
Wed 01:27:48 PM 34.3961 -84.6103 345° North 360 414 18,900 1,650 Climbing Atlanta Center
Wed 01:28:48 PM 34.4961 -84.6436 345° North 370 426 20,500 1,500 Climbing Atlanta Center
Wed 01:29:48 PM 34.5961 -84.6872 340° North 375 432 21,900 1,250 Climbing Atlanta Center
Wed 01:30:48 PM 34.6981 -84.7261 343° North 382 440 23,000 1,150 Climbing Atlanta Center
Wed 01:31:48 PM 34.7936 -84.7975 328° Northwest 387 445 24,200 900 Climbing Atlanta Center
Wed 01:32:48 PM 34.8764 -84.8969 315° West 407 468 24,800 650 Climbing Atlanta Center
Wed 01:33:48 PM 34.9572 -85.0069 312° West 417 480 25,500 650 Climbing Atlanta Center
Wed 01:34:48 PM 35.0333 -85.1219 309° West 430 495 26,100 650 Climbing Atlanta Center
Wed 01:35:48 PM 35.1200 -85.2272 315° West 441 507 26,800 600 Climbing Atlanta Center
Wed 01:36:48 PM 35.2192 -85.3150 324° Northwest 441 507 27,300 600 Climbing Atlanta Center
Wed 01:37:48 PM 35.3417 -85.3806 336° Northwest 431 496 28,000 350 Climbing Atlanta Center
Wed 01:38:48 PM 35.4644 -85.4081 350° North 438 504 28,000  Level Atlanta Center
Wed 01:39:48 PM 35.5917 -85.4153 357° North 443 510 28,000  Level Atlanta Center
Wed 01:41:48 PM 35.8486 -85.3747 North 466 536 28,000  Level Indianapolis Center
Wed 01:42:50 PM 35.9719 -85.3203 20° North 463 533 28,000  Level Indianapolis Center
Wed 01:43:51 PM 36.0978 -85.2736 17° North 467 537 28,000  Level Indianapolis Center
Wed 01:44:53 PM 36.2256 -85.2400 12° North 465 535 28,000  Level Indianapolis Center
Wed 01:45:54 PM 36.3525 -85.2014 14° North 465 535 28,000  Level Indianapolis Center
Wed 01:46:55 PM 36.4817 -85.1806 North 465 535 28,000  Level Indianapolis Center
Wed 01:47:57 PM 36.6100 -85.1775 North 463 533 28,000  Level Indianapolis Center
Wed 01:48:58 PM 36.7397 -85.1617 North 466 536 28,000 -146 Level Indianapolis Center
Wed 01:50:00 PM 36.8586 -85.0975 23° Northeast 471 542 27,700 -1,707 Descending Indianapolis Center
Wed 01:51:01 PM 37.0017 -85.0442 17° North 451 519 24,500 -2,683 Descending Indianapolis Center
Wed 01:52:03 PM 37.1200 -85.0278 North 446 513 22,200 -2,683 Descending Indianapolis Center
Wed 01:53:04 PM 37.2372 -85.0297 359° North 425 489 19,000 -2,634 Descending Indianapolis Center
Wed 01:54:06 PM 37.3483 -85.0211 North 407 468 16,800 -2,293 Descending Indianapolis Center
Wed 01:55:07 PM 37.4547 -85.0061 North 388 447 14,300 -2,439 Descending Indianapolis Center
Wed 01:56:09 PM 37.5558 -84.9872 North 371 427 11,800 -1,659 Descending Indianapolis Center
Wed 01:57:10 PM 37.6503 -84.9767 North 350 403 10,900 -927 Descending Indianapolis Center
Wed 01:58:12 PM 37.7431 -85.0528 327° Northwest 345 397 9,900 -439 Descending Indianapolis Center
Wed 01:59:13 PM 37.7997 -85.1461 308° West 335 386 10,000 49 Climbing Indianapolis Center
Wed 02:00:15 PM 37.8403 -85.2192 305° West 301 346 10,000 -49 Level Indianapolis Center
Wed 02:01:16 PM 37.8944 -85.2889 315° West 281 323 9,900 -885 Descending Indianapolis Center
Wed 02:02:17 PM 37.9575 -85.3689 315° West 269 310 8,200 -1,659 Descending Indianapolis Center
Wed 02:03:19 PM 38.0122 -85.4292 319° Northwest 262 302 6,500 -1,073 Descending Indianapolis Center
Wed 02:04:20 PM 38.0500 -85.5036 303° West 254 292 6,000 -293 Descending Indianapolis Center
Wed 02:05:22 PM 38.0936 -85.5800 306° West 262 302 5,900  Descending Indianapolis Center
Wed 02:06:23 PM 38.1661 -85.6097 342° North 273 314 6,000 -49 Climbing Indianapolis Center
Wed 02:07:25 PM 38.2364 -85.6292 348° North 262 302 5,800 -585 Descending Indianapolis Center
Wed 02:08:26 PM 38.3039 -85.6506 346° North 255 293 4,800 -934 Descending Indianapolis Center
Wed 02:09:27 PM 38.3678 -85.6725 345° North 248 285 3,900 -927 Descending Indianapolis Center
Wed 02:10:29 PM 38.3686 -85.7378 271° West 219 252 2,900 -968 Descending Indianapolis Center

Login

Don't have an account? Register now (free) for customized features, flight alerts, and more!